sensor_id;sensor_type;location;lat;lon;timestamp;pressure;altitude;pressure_sealevel;temperature;humidity
15405;BME280;7801;48.124;11.590;2023-05-21T00:02:07;95063.13;;;16.48;74.10
15405;BME280;7801;48.124;11.590;2023-05-21T00:04:38;95065.34;;;16.46;74.02
15405;BME280;7801;48.124;11.590;2023-05-21T00:07:05;95060.34;;;16.45;73.76
15405;BME280;7801;48.124;11.590;2023-05-21T00:09:30;95059.34;;;16.37;73.64
15405;BME280;7801;48.124;11.590;2023-05-21T00:11:56;95054.00;;;16.37;73.45
15405;BME280;7801;48.124;11.590;2023-05-21T00:14:21;95052.00;;;16.34;73.39
15405;BME280;7801;48.124;11.590;2023-05-21T00:16:46;95055.56;;;16.26;73.63
15405;BME280;7801;48.124;11.590;2023-05-21T00:19:12;95049.75;;;16.36;72.73
15405;BME280;7801;48.124;11.590;2023-05-21T00:21:37;95048.19;;;16.35;72.72
15405;BME280;7801;48.124;11.590;2023-05-21T00:24:04;95043.84;;;16.31;72.73
15405;BME280;7801;48.124;11.590;2023-05-21T00:26:30;95048.19;;;16.35;72.28
15405;BME280;7801;48.124;11.590;2023-05-21T00:28:55;95040.38;;;16.30;71.87
15405;BME280;7801;48.124;11.590;2023-05-21T00:31:22;95038.25;;;16.24;71.88
15405;BME280;7801;48.124;11.590;2023-05-21T00:33:47;95041.72;;;16.24;71.46
15405;BME280;7801;48.124;11.590;2023-05-21T00:36:13;95041.06;;;16.27;71.11
15405;BME280;7801;48.124;11.590;2023-05-21T00:38:41;95031.59;;;16.18;71.47
15405;BME280;7801;48.124;11.590;2023-05-21T00:41:11;95041.53;;;16.17;71.66
15405;BME280;7801;48.124;11.590;2023-05-21T00:43:37;95047.72;;;16.21;71.36
15405;BME280;7801;48.124;11.590;2023-05-21T00:46:14;95037.63;;;16.14;71.61
15405;BME280;7801;48.124;11.590;2023-05-21T00:48:41;95037.16;;;16.12;71.64
15405;BME280;7801;48.124;11.590;2023-05-21T00:51:08;95034.81;;;16.11;71.28
15405;BME280;7801;48.124;11.590;2023-05-21T00:53:34;95035.03;;;16.06;71.69
15405;BME280;7801;48.124;11.590;2023-05-21T00:56:00;95028.78;;;16.02;71.38
15405;BME280;7801;48.124;11.590;2023-05-21T00:58:26;95029.38;;;15.95;71.73
15405;BME280;7801;48.124;11.590;2023-05-21T01:00:52;95021.22;;;16.04;71.41
15405;BME280;7801;48.124;11.590;2023-05-21T01:03:21;95027.66;;;16.03;70.72
15405;BME280;7801;48.124;11.590;2023-05-21T01:05:48;95024.13;;;15.99;71.38
15405;BME280;7801;48.124;11.590;2023-05-21T01:08:14;95022.78;;;15.93;70.65
15405;BME280;7801;48.124;11.590;2023-05-21T01:10:40;95027.47;;;15.96;70.90
15405;BME280;7801;48.124;11.590;2023-05-21T01:13:05;95026.34;;;15.97;70.61
15405;BME280;7801;48.124;11.590;2023-05-21T01:15:31;95023.56;;;15.93;70.78
15405;BME280;7801;48.124;11.590;2023-05-21T01:17:57;95019.53;;;15.75;71.30
15405;BME280;7801;48.124;11.590;2023-05-21T01:20:23;95022.75;;;15.80;71.13
15405;BME280;7801;48.124;11.590;2023-05-21T01:22:54;95017.66;;;15.88;71.19
15405;BME280;7801;48.124;11.590;2023-05-21T01:25:21;95022.34;;;15.91;71.22
15405;BME280;7801;48.124;11.590;2023-05-21T01:27:47;95022.13;;;15.96;70.87
15405;BME280;7801;48.124;11.590;2023-05-21T01:30:14;95027.91;;;15.98;70.67
15405;BME280;7801;48.124;11.590;2023-05-21T01:35:21;95025.44;;;15.80;70.89
15405;BME280;7801;48.124;11.590;2023-05-21T01:37:58;95017.53;;;15.84;71.32
15405;BME280;7801;48.124;11.590;2023-05-21T01:40:38;95012.50;;;15.82;71.57
15405;BME280;7801;48.124;11.590;2023-05-21T01:43:07;95012.75;;;15.77;71.13
15405;BME280;7801;48.124;11.590;2023-05-21T01:45:35;95013.53;;;15.78;70.97
15405;BME280;7801;48.124;11.590;2023-05-21T01:48:04;95014.19;;;15.75;70.38
15405;BME280;7801;48.124;11.590;2023-05-21T01:50:31;95017.31;;;15.77;70.17
15405;BME280;7801;48.124;11.590;2023-05-21T01:52:56;95013.53;;;15.78;69.74
15405;BME280;7801;48.124;11.590;2023-05-21T01:55:22;95006.50;;;15.73;69.46
15405;BME280;7801;48.124;11.590;2023-05-21T01:57:53;95009.50;;;15.72;69.62
15405;BME280;7801;48.124;11.590;2023-05-21T02:00:20;95008.59;;;15.68;69.92
15405;BME280;7801;48.124;11.590;2023-05-21T02:02:45;95011.59;;;15.66;69.22
15405;BME280;7801;48.124;11.590;2023-05-21T02:05:11;95013.38;;;15.62;69.51
15405;BME280;7801;48.124;11.590;2023-05-21T02:07:37;95006.56;;;15.53;70.18
15405;BME280;7801;48.124;11.590;2023-05-21T02:10:04;95007.59;;;15.60;69.62
15405;BME280;7801;48.124;11.590;2023-05-21T02:12:30;95005.00;;;15.52;69.77
15405;BME280;7801;48.124;11.590;2023-05-21T02:14:55;95010.94;;;15.57;69.58
15405;BME280;7801;48.124;11.590;2023-05-21T02:17:21;95005.31;;;15.50;69.62
15405;BME280;7801;48.124;11.590;2023-05-21T02:19:48;95008.44;;;15.52;69.32
15405;BME280;7801;48.124;11.590;2023-05-21T02:22:15;94998.88;;;15.51;69.03
15405;BME280;7801;48.124;11.590;2023-05-21T02:24:40;95008.91;;;15.54;68.81
15405;BME280;7801;48.124;11.590;2023-05-21T02:27:07;95005.62;;;15.36;69.67
15405;BME280;7801;48.124;11.590;2023-05-21T02:29:35;95005.41;;;15.41;69.21
15405;BME280;7801;48.124;11.590;2023-05-21T02:32:00;94996.50;;;15.37;69.50
15405;BME280;7801;48.124;11.590;2023-05-21T02:34:27;94999.06;;;15.34;69.60
15405;BME280;7801;48.124;11.590;2023-05-21T02:36:57;95000.16;;;15.33;69.85
15405;BME280;7801;48.124;11.590;2023-05-21T02:39:23;95007.63;;;15.39;69.69
15405;BME280;7801;48.124;11.590;2023-05-21T02:41:48;95002.28;;;15.39;69.77
15405;BME280;7801;48.124;11.590;2023-05-21T02:44:14;94999.41;;;15.44;69.78
15405;BME280;7801;48.124;11.590;2023-05-21T02:46:42;95005.19;;;15.46;69.70
15405;BME280;7801;48.124;11.590;2023-05-21T02:49:08;95002.66;;;15.50;69.96
15405;BME280;7801;48.124;11.590;2023-05-21T02:51:33;95015.75;;;15.31;70.76
15405;BME280;7801;48.124;11.590;2023-05-21T02:53:58;95010.16;;;15.24;71.01
15405;BME280;7801;48.124;11.590;2023-05-21T02:56:24;95009.41;;;15.35;70.77
15405;BME280;7801;48.124;11.590;2023-05-21T02:58:50;95011.53;;;15.42;70.49
15405;BME280;7801;48.124;11.590;2023-05-21T03:01:16;95014.97;;;15.30;70.48
15405;BME280;7801;48.124;11.590;2023-05-21T03:03:41;95009.63;;;15.30;70.44
15405;BME280;7801;48.124;11.590;2023-05-21T03:06:06;95011.06;;;15.28;70.13
15405;BME280;7801;48.124;11.590;2023-05-21T03:08:34;95000.25;;;15.24;70.41
15405;BME280;7801;48.124;11.590;2023-05-21T03:11:00;95000.44;;;15.19;70.21
15405;BME280;7801;48.124;11.590;2023-05-21T03:13:25;95001.41;;;15.02;70.91
15405;BME280;7801;48.124;11.590;2023-05-21T03:15:51;95003.41;;;15.05;70.70
15405;BME280;7801;48.124;11.590;2023-05-21T03:18:20;94997.44;;;15.08;70.76
15405;BME280;7801;48.124;11.590;2023-05-21T03:20:45;94999.91;;;15.13;70.53
15405;BME280;7801;48.124;11.590;2023-05-21T03:23:11;94996.62;;;15.08;70.46
15405;BME280;7801;48.124;11.590;2023-05-21T03:25:37;94999.19;;;15.04;70.84
15405;BME280;7801;48.124;11.590;2023-05-21T03:28:03;94999.00;;;15.09;70.24
15405;BME280;7801;48.124;11.590;2023-05-21T03:30:28;94995.06;;;15.07;70.39
15405;BME280;7801;48.124;11.590;2023-05-21T03:32:54;94997.62;;;15.03;70.77
15405;BME280;7801;48.124;11.590;2023-05-21T03:35:20;95001.37;;;14.90;71.11
15405;BME280;7801;48.124;11.590;2023-05-21T03:37:45;95000.78;;;14.85;71.34
15405;BME280;7801;48.124;11.590;2023-05-21T03:40:11;94998.38;;;14.92;71.15
15405;BME280;7801;48.124;11.590;2023-05-21T03:42:37;94997.59;;;14.91;71.55
15405;BME280;7801;48.124;11.590;2023-05-21T03:45:02;94998.72;;;15.02;71.07
15405;BME280;7801;48.124;11.590;2023-05-21T03:47:28;94994.03;;;14.99;71.44
15405;BME280;7801;48.124;11.590;2023-05-21T03:49:53;94987.84;;;15.07;71.01
15405;BME280;7801;48.124;11.590;2023-05-21T03:52:18;94984.13;;;15.00;71.49
15405;BME280;7801;48.124;11.590;2023-05-21T03:54:44;94983.47;;;15.03;71.47
15405;BME280;7801;48.124;11.590;2023-05-21T03:57:09;94987.38;;;14.93;71.83
15405;BME280;7801;48.124;11.590;2023-05-21T03:59:35;94987.56;;;14.88;72.24
15405;BME280;7801;48.124;11.590;2023-05-21T04:02:00;94989.31;;;14.84;72.50
15405;BME280;7801;48.124;11.590;2023-05-21T04:04:25;94994.59;;;14.93;72.02
15405;BME280;7801;48.124;11.590;2023-05-21T04:06:53;95000.72;;;14.93;72.05
15405;BME280;7801;48.124;11.590;2023-05-21T04:09:19;95001.25;;;14.87;72.29
15405;BME280;7801;48.124;11.590;2023-05-21T04:11:45;95000.25;;;14.91;72.32
15405;BME280;7801;48.124;11.590;2023-05-21T04:14:11;95000.19;;;14.79;72.51
15405;BME280;7801;48.124;11.590;2023-05-21T04:16:37;95001.69;;;14.89;72.36
15405;BME280;7801;48.124;11.590;2023-05-21T04:19:03;94995.25;;;14.90;72.45
15405;BME280;7801;48.124;11.590;2023-05-21T04:21:28;94999.47;;;14.91;72.62
15405;BME280;7801;48.124;11.590;2023-05-21T04:23:54;95000.47;;;14.86;72.48
15405;BME280;7801;48.124;11.590;2023-05-21T04:26:21;94998.59;;;14.99;72.18
15405;BME280;7801;48.124;11.590;2023-05-21T04:28:47;94997.03;;;14.98;72.02
15405;BME280;7801;48.124;11.590;2023-05-21T04:31:13;95003.63;;;15.00;72.16
15405;BME280;7801;48.124;11.590;2023-05-21T04:33:39;95012.81;;;15.11;72.01
15405;BME280;7801;48.124;11.590;2023-05-21T04:36:06;95012.09;;;15.02;72.01
15405;BME280;7801;48.124;11.590;2023-05-21T04:38:34;95010.13;;;15.11;71.73
15405;BME280;7801;48.124;11.590;2023-05-21T04:41:01;95009.88;;;15.04;72.10
15405;BME280;7801;48.124;11.590;2023-05-21T04:43:28;95006.28;;;15.00;72.10
15405;BME280;7801;48.124;11.590;2023-05-21T04:45:54;95008.25;;;15.12;71.58
15405;BME280;7801;48.124;11.590;2023-05-21T04:48:22;95001.56;;;15.18;71.91
15405;BME280;7801;48.124;11.590;2023-05-21T04:50:49;95012.25;;;15.18;72.17
15405;BME280;7801;48.124;11.590;2023-05-21T04:53:15;95005.12;;;15.22;72.10
15405;BME280;7801;48.124;11.590;2023-05-21T04:55:40;95018.81;;;15.08;72.83
15405;BME280;7801;48.124;11.590;2023-05-21T04:58:06;95012.25;;;15.18;71.94
15405;BME280;7801;48.124;11.590;2023-05-21T05:00:34;95011.75;;;15.04;72.08
15405;BME280;7801;48.124;11.590;2023-05-21T05:03:01;95018.53;;;15.01;72.44
15405;BME280;7801;48.124;11.590;2023-05-21T05:05:27;95023.87;;;15.01;72.12
15405;BME280;7801;48.124;11.590;2023-05-21T05:07:52;95015.66;;;15.06;71.84
15405;BME280;7801;48.124;11.590;2023-05-21T05:10:17;95009.22;;;15.07;72.24
15405;BME280;7801;48.124;11.590;2023-05-21T05:12:43;95009.81;;;15.13;72.51
15405;BME280;7801;48.124;11.590;2023-05-21T05:15:08;95013.94;;;15.23;72.34
15405;BME280;7801;48.124;11.590;2023-05-21T05:17:34;95019.28;;;15.23;72.20
15405;BME280;7801;48.124;11.590;2023-05-21T05:19:59;95017.72;;;15.22;72.45
15405;BME280;7801;48.124;11.590;2023-05-21T05:22:25;95009.50;;;15.27;72.00
15405;BME280;7801;48.124;11.590;2023-05-21T05:24:51;95013.06;;;15.31;72.58
15405;BME280;7801;48.124;11.590;2023-05-21T05:27:16;95006.06;;;15.38;71.95
15405;BME280;7801;48.124;11.590;2023-05-21T05:29:43;95008.19;;;15.33;72.19
15405;BME280;7801;48.124;11.590;2023-05-21T05:32:09;95009.50;;;15.27;72.53
15405;BME280;7801;48.124;11.590;2023-05-21T05:34:34;95010.53;;;15.34;72.41
15405;BME280;7801;48.124;11.590;2023-05-21T05:36:59;95015.44;;;15.44;72.17
15405;BME280;7801;48.124;11.590;2023-05-21T05:39:27;95014.00;;;15.47;71.92
15405;BME280;7801;48.124;11.590;2023-05-21T05:41:52;95015.13;;;15.46;71.79
15405;BME280;7801;48.124;11.590;2023-05-21T05:44:17;95016.66;;;15.47;71.39
15405;BME280;7801;48.124;11.590;2023-05-21T05:46:43;95021.38;;;15.50;72.00
15405;BME280;7801;48.124;11.590;2023-05-21T05:49:08;95018.19;;;15.57;71.96
15405;BME280;7801;48.124;11.590;2023-05-21T05:51:33;95012.94;;;15.60;71.84
15405;BME280;7801;48.124;11.590;2023-05-21T05:53:58;95021.31;;;15.59;72.43
15405;BME280;7801;48.124;11.590;2023-05-21T05:56:25;95012.97;;;15.72;72.34
15405;BME280;7801;48.124;11.590;2023-05-21T05:58:51;95014.72;;;15.68;72.91
15405;BME280;7801;48.124;11.590;2023-05-21T06:01:17;95020.97;;;15.72;71.49
15405;BME280;7801;48.124;11.590;2023-05-21T06:03:43;95024.87;;;15.75;71.18
15405;BME280;7801;48.124;11.590;2023-05-21T06:06:08;95014.84;;;15.84;70.90
15405;BME280;7801;48.124;11.590;2023-05-21T06:08:33;95024.56;;;15.89;71.34
15405;BME280;7801;48.124;11.590;2023-05-21T06:10:59;95021.66;;;15.94;70.27
15405;BME280;7801;48.124;11.590;2023-05-21T06:13:24;95027.22;;;16.01;69.71
15405;BME280;7801;48.124;11.590;2023-05-21T06:15:52;95021.31;;;16.07;69.99
15405;BME280;7801;48.124;11.590;2023-05-21T06:18:17;95023.91;;;16.16;70.78
15405;BME280;7801;48.124;11.590;2023-05-21T06:20:43;95021.41;;;16.23;70.78
15405;BME280;7801;48.124;11.590;2023-05-21T06:23:08;95023.56;;;16.18;70.35
15405;BME280;7801;48.124;11.590;2023-05-21T06:25:33;95016.19;;;16.27;69.91
15405;BME280;7801;48.124;11.590;2023-05-21T06:27:59;95028.78;;;16.38;69.79
15405;BME280;7801;48.124;11.590;2023-05-21T06:30:24;95030.44;;;16.43;69.58
15405;BME280;7801;48.124;11.590;2023-05-21T06:32:49;95028.88;;;16.54;69.90
15405;BME280;7801;48.124;11.590;2023-05-21T06:35:15;95021.03;;;16.73;67.80
15405;BME280;7801;48.124;11.590;2023-05-21T06:37:40;95026.00;;;16.87;67.10
15405;BME280;7801;48.124;11.590;2023-05-21T06:40:07;95028.56;;;16.96;67.15
15405;BME280;7801;48.124;11.590;2023-05-21T06:42:32;95022.63;;;17.02;67.78
15405;BME280;7801;48.124;11.590;2023-05-21T06:44:58;95030.25;;;17.16;67.11
15405;BME280;7801;48.124;11.590;2023-05-21T06:47:23;95023.28;;;17.27;67.59
15405;BME280;7801;48.124;11.590;2023-05-21T06:49:48;95029.72;;;17.38;67.22
15405;BME280;7801;48.124;11.590;2023-05-21T06:52:14;95021.69;;;17.54;66.51
15405;BME280;7801;48.124;11.590;2023-05-21T06:54:39;95032.00;;;17.68;66.21
15405;BME280;7801;48.124;11.590;2023-05-21T06:57:05;95024.34;;;17.66;65.95
15405;BME280;7801;48.124;11.590;2023-05-21T06:59:30;95032.97;;;17.75;63.53
15405;BME280;7801;48.124;11.590;2023-05-21T07:01:55;95039.22;;;17.79;64.38
15405;BME280;7801;48.124;11.590;2023-05-21T07:04:20;95037.22;;;17.92;62.21
15405;BME280;7801;48.124;11.590;2023-05-21T07:06:46;95040.88;;;18.00;62.74
15405;BME280;7801;48.124;11.590;2023-05-21T07:09:12;95042.00;;;17.99;61.42
15405;BME280;7801;48.124;11.590;2023-05-21T07:11:38;95046.59;;;17.98;60.71
15405;BME280;7801;48.124;11.590;2023-05-21T07:14:03;95043.72;;;18.07;60.83
15405;BME280;7801;48.124;11.590;2023-05-21T07:16:28;95042.44;;;18.01;60.20
15405;BME280;7801;48.124;11.590;2023-05-21T07:18:54;95042.94;;;18.06;60.18
15405;BME280;7801;48.124;11.590;2023-05-21T07:21:19;95043.09;;;18.13;58.48
15405;BME280;7801;48.124;11.590;2023-05-21T07:23:45;95041.03;;;18.23;57.72
15405;BME280;7801;48.124;11.590;2023-05-21T07:26:10;95047.09;;;18.19;56.92
15405;BME280;7801;48.124;11.590;2023-05-21T07:28:36;95038.25;;;18.19;56.61
15405;BME280;7801;48.124;11.590;2023-05-21T07:31:01;95043.19;;;18.17;57.24
15405;BME280;7801;48.124;11.590;2023-05-21T07:33:26;95031.66;;;18.16;57.22
15405;BME280;7801;48.124;11.590;2023-05-21T07:35:52;95039.53;;;18.09;58.20
15405;BME280;7801;48.124;11.590;2023-05-21T07:38:17;95038.06;;;18.12;57.54
15405;BME280;7801;48.124;11.590;2023-05-21T07:40:43;95042.41;;;18.16;57.09
15405;BME280;7801;48.124;11.590;2023-05-21T07:43:08;95037.13;;;18.20;57.22
15405;BME280;7801;48.124;11.590;2023-05-21T07:45:33;95029.75;;;18.17;57.44
15405;BME280;7801;48.124;11.590;2023-05-21T07:47:59;95041.38;;;18.21;56.51
15405;BME280;7801;48.124;11.590;2023-05-21T07:50:25;95041.19;;;18.14;57.02
15405;BME280;7801;48.124;11.590;2023-05-21T07:52:50;95038.59;;;18.17;57.80
15405;BME280;7801;48.124;11.590;2023-05-21T07:55:15;95040.50;;;18.17;57.21
15405;BME280;7801;48.124;11.590;2023-05-21T07:57:41;95036.88;;;18.09;57.48
15405;BME280;7801;48.124;11.590;2023-05-21T08:00:06;95035.38;;;18.12;58.11
15405;BME280;7801;48.124;11.590;2023-05-21T08:02:33;95039.06;;;18.04;59.15
15405;BME280;7801;48.124;11.590;2023-05-21T08:04:59;95039.97;;;18.11;58.09
15405;BME280;7801;48.124;11.590;2023-05-21T08:07:25;95043.09;;;18.13;58.76
15405;BME280;7801;48.124;11.590;2023-05-21T08:09:51;95038.50;;;18.14;59.40
15405;BME280;7801;48.124;11.590;2023-05-21T08:12:18;95045.53;;;18.18;59.62
15405;BME280;7801;48.124;11.590;2023-05-21T08:14:44;95045.78;;;18.13;59.99
15405;BME280;7801;48.124;11.590;2023-05-21T08:17:09;95054.81;;;18.21;60.65
15405;BME280;7801;48.124;11.590;2023-05-21T08:19:35;95051.12;;;18.29;59.82
15405;BME280;7801;48.124;11.590;2023-05-21T08:22:01;95052.47;;;18.19;61.48
15405;BME280;7801;48.124;11.590;2023-05-21T08:24:26;95050.38;;;18.29;61.91
15405;BME280;7801;48.124;11.590;2023-05-21T08:26:51;95056.34;;;18.22;63.07
15405;BME280;7801;48.124;11.590;2023-05-21T08:29:16;95060.16;;;18.21;62.23
15405;BME280;7801;48.124;11.590;2023-05-21T08:31:42;95065.88;;;18.35;61.65
15405;BME280;7801;48.124;11.590;2023-05-21T08:34:07;95058.16;;;18.34;62.70
15405;BME280;7801;48.124;11.590;2023-05-21T08:36:32;95057.47;;;18.37;62.42
15405;BME280;7801;48.124;11.590;2023-05-21T08:38:59;95057.28;;;18.45;63.35
15405;BME280;7801;48.124;11.590;2023-05-21T08:41:25;95058.06;;;18.46;63.43
15405;BME280;7801;48.124;11.590;2023-05-21T08:43:54;95058.97;;;18.53;63.44
15405;BME280;7801;48.124;11.590;2023-05-21T08:46:22;95063.94;;;18.67;63.08
15405;BME280;7801;48.124;11.590;2023-05-21T08:48:50;95061.31;;;18.71;64.08
15405;BME280;7801;48.124;11.590;2023-05-21T08:51:15;95058.22;;;18.69;63.24
15405;BME280;7801;48.124;11.590;2023-05-21T08:53:40;95062.53;;;18.73;63.16
15405;BME280;7801;48.124;11.590;2023-05-21T08:56:06;95069.09;;;18.76;63.60
15405;BME280;7801;48.124;11.590;2023-05-21T08:58:31;95058.59;;;18.86;63.62
15405;BME280;7801;48.124;11.590;2023-05-21T09:00:58;95059.50;;;18.94;63.95
15405;BME280;7801;48.124;11.590;2023-05-21T09:03:23;95059.59;;;18.98;63.90
15405;BME280;7801;48.124;11.590;2023-05-21T09:05:49;95057.31;;;19.00;64.77
15405;BME280;7801;48.124;11.590;2023-05-21T09:08:20;95059.50;;;19.13;63.60
15405;BME280;7801;48.124;11.590;2023-05-21T09:10:49;95062.56;;;19.31;63.23
15405;BME280;7801;48.124;11.590;2023-05-21T09:13:16;95060.34;;;19.37;62.95
15405;BME280;7801;48.124;11.590;2023-05-21T09:15:43;95052.72;;;19.39;63.39
15405;BME280;7801;48.124;11.590;2023-05-21T09:18:08;95053.56;;;19.43;63.59
15405;BME280;7801;48.124;11.590;2023-05-21T09:20:34;95052.06;;;19.45;64.85
15405;BME280;7801;48.124;11.590;2023-05-21T09:23:02;95062.41;;;19.63;63.21
15405;BME280;7801;48.124;11.590;2023-05-21T09:25:27;95055.78;;;19.79;62.60
15405;BME280;7801;48.124;11.590;2023-05-21T09:27:56;95049.03;;;19.89;62.27
15405;BME280;7801;48.124;11.590;2023-05-21T09:30:22;95054.16;;;19.98;63.23
15405;BME280;7801;48.124;11.590;2023-05-21T09:33:06;95055.69;;;19.95;63.23
15405;BME280;7801;48.124;11.590;2023-05-21T09:35:31;95053.03;;;19.99;63.76
15405;BME280;7801;48.124;11.590;2023-05-21T09:37:57;95048.63;;;20.10;63.42
15405;BME280;7801;48.124;11.590;2023-05-21T09:40:22;95049.56;;;20.21;62.89
15405;BME280;7801;48.124;11.590;2023-05-21T09:42:50;95048.19;;;20.31;61.80
15405;BME280;7801;48.124;11.590;2023-05-21T09:45:23;95042.53;;;20.39;61.73
15405;BME280;7801;48.124;11.590;2023-05-21T09:47:50;95052.19;;;20.40;61.50
15405;BME280;7801;48.124;11.590;2023-05-21T09:50:18;95045.34;;;20.46;61.66
15405;BME280;7801;48.124;11.590;2023-05-21T09:52:44;95042.78;;;20.53;61.25
15405;BME280;7801;48.124;11.590;2023-05-21T09:55:11;95044.75;;;20.56;60.96
15405;BME280;7801;48.124;11.590;2023-05-21T09:57:44;95043.69;;;20.65;58.79
15405;BME280;7801;48.124;11.590;2023-05-21T10:02:43;95038.87;;;20.81;55.02
15405;BME280;7801;48.124;11.590;2023-05-21T10:05:09;95041.06;;;20.98;52.07
15405;BME280;7801;48.124;11.590;2023-05-21T10:07:36;95041.66;;;21.14;50.54
15405;BME280;7801;48.124;11.590;2023-05-21T10:10:03;95036.00;;;21.60;46.26
15405;BME280;7801;48.124;11.590;2023-05-21T10:12:29;95039.91;;;21.66;46.83
15405;BME280;7801;48.124;11.590;2023-05-21T10:14:59;95039.91;;;21.66;46.93
15405;BME280;7801;48.124;11.590;2023-05-21T10:17:34;95040.84;;;21.81;46.13
15405;BME280;7801;48.124;11.590;2023-05-21T10:20:01;95037.81;;;21.89;46.19
15405;BME280;7801;48.124;11.590;2023-05-21T10:22:27;95041.06;;;22.02;46.40
15405;BME280;7801;48.124;11.590;2023-05-21T10:24:53;95036.84;;;22.08;45.58
15405;BME280;7801;48.124;11.590;2023-05-21T10:27:19;95036.22;;;22.22;45.34
15405;BME280;7801;48.124;11.590;2023-05-21T10:29:45;95036.69;;;22.35;44.14
15405;BME280;7801;48.124;11.590;2023-05-21T10:32:14;95046.78;;;22.41;43.65
15405;BME280;7801;48.124;11.590;2023-05-21T10:34:42;95029.81;;;22.44;43.80
15405;BME280;7801;48.124;11.590;2023-05-21T10:37:08;95028.97;;;22.37;45.02
15405;BME280;7801;48.124;11.590;2023-05-21T10:39:34;95029.38;;;22.39;44.90
15405;BME280;7801;48.124;11.590;2023-05-21T10:44:59;95027.59;;;22.60;44.19
15405;BME280;7801;48.124;11.590;2023-05-21T10:51:03;95033.97;;;22.35;46.51
15405;BME280;7801;48.124;11.590;2023-05-21T10:56:28;95025.41;;;22.25;45.90
15405;BME280;7801;48.124;11.590;2023-05-21T10:59:24;95024.19;;;22.16;45.72
15405;BME280;7801;48.124;11.590;2023-05-21T11:01:54;95023.34;;;22.08;45.15
15405;BME280;7801;48.124;11.590;2023-05-21T11:04:28;95024.13;;;22.09;44.48
15405;BME280;7801;48.124;11.590;2023-05-21T11:06:54;95020.28;;;22.10;44.09
15405;BME280;7801;48.124;11.590;2023-05-21T11:09:20;95027.19;;;22.07;44.77
15405;BME280;7801;48.124;11.590;2023-05-21T11:11:50;95020.53;;;21.98;45.63
15405;BME280;7801;48.124;11.590;2023-05-21T11:16:55;95020.22;;;22.06;44.44
15405;BME280;7801;48.124;11.590;2023-05-21T11:19:21;95019.56;;;22.16;43.37
15405;BME280;7801;48.124;11.590;2023-05-21T11:21:49;95026.56;;;22.21;43.42
15405;BME280;7801;48.124;11.590;2023-05-21T11:24:18;95019.31;;;22.36;43.23
15405;BME280;7801;48.124;11.590;2023-05-21T11:29:12;95017.13;;;22.55;43.04
15405;BME280;7801;48.124;11.590;2023-05-21T11:31:44;95009.81;;;22.59;42.67
15405;BME280;7801;48.124;11.590;2023-05-21T11:36:48;95016.72;;;22.53;42.96
15405;BME280;7801;48.124;11.590;2023-05-21T11:39:15;95007.91;;;22.67;42.00
15405;BME280;7801;48.124;11.590;2023-05-21T11:41:56;95012.69;;;22.88;40.99
15405;BME280;7801;48.124;11.590;2023-05-21T11:44:38;95011.53;;;22.85;41.23
15405;BME280;7801;48.124;11.590;2023-05-21T11:47:06;95003.06;;;22.98;43.13
15405;BME280;7801;48.124;11.590;2023-05-21T11:49:32;95001.94;;;23.09;40.94
15405;BME280;7801;48.124;11.590;2023-05-21T11:52:01;95004.66;;;23.09;40.85
15405;BME280;7801;48.124;11.590;2023-05-21T11:54:27;95014.34;;;23.14;41.11
15405;BME280;7801;48.124;11.590;2023-05-21T11:56:58;95008.53;;;23.05;40.41
15405;BME280;7801;48.124;11.590;2023-05-21T11:59:27;95014.28;;;23.00;40.33
15405;BME280;7801;48.124;11.590;2023-05-21T12:01:53;95008.47;;;22.98;39.42
15405;BME280;7801;48.124;11.590;2023-05-21T12:04:18;95012.75;;;23.02;40.40
15405;BME280;7801;48.124;11.590;2023-05-21T12:06:44;95009.22;;;22.91;40.14
15405;BME280;7801;48.124;11.590;2023-05-21T12:09:10;95000.31;;;22.90;41.28
15405;BME280;7801;48.124;11.590;2023-05-21T12:11:39;94997.25;;;22.92;42.10
15405;BME280;7801;48.124;11.590;2023-05-21T12:14:08;95004.94;;;22.79;41.34
15405;BME280;7801;48.124;11.590;2023-05-21T12:16:35;95002.63;;;22.85;42.55
15405;BME280;7801;48.124;11.590;2023-05-21T12:19:03;95005.31;;;22.78;40.86
15405;BME280;7801;48.124;11.590;2023-05-21T12:21:29;95001.16;;;23.09;39.81
15405;BME280;7801;48.124;11.590;2023-05-21T12:23:55;95009.72;;;23.14;40.12
15405;BME280;7801;48.124;11.590;2023-05-21T12:26:22;94998.47;;;23.02;41.34
15405;BME280;7801;48.124;11.590;2023-05-21T12:28:54;94999.16;;;22.88;42.30
15405;BME280;7801;48.124;11.590;2023-05-21T12:31:20;94993.72;;;22.81;41.84
15405;BME280;7801;48.124;11.590;2023-05-21T12:33:50;94991.34;;;22.76;41.87
15405;BME280;7801;48.124;11.590;2023-05-21T12:36:24;94996.09;;;22.96;39.86
15405;BME280;7801;48.124;11.590;2023-05-21T12:38:50;94988.47;;;23.23;39.70
15405;BME280;7801;48.124;11.590;2023-05-21T12:41:16;94984.63;;;23.35;38.88
15405;BME280;7801;48.124;11.590;2023-05-21T12:43:42;94982.31;;;23.34;37.54
15405;BME280;7801;48.124;11.590;2023-05-21T12:46:10;94989.28;;;23.38;39.52
15405;BME280;7801;48.124;11.590;2023-05-21T12:48:36;94982.34;;;23.44;38.12
15405;BME280;7801;48.124;11.590;2023-05-21T12:51:02;94986.97;;;23.51;38.96
15405;BME280;7801;48.124;11.590;2023-05-21T12:53:37;94985.81;;;23.38;40.74
15405;BME280;7801;48.124;11.590;2023-05-21T12:56:13;94981.19;;;23.42;37.51
15405;BME280;7801;48.124;11.590;2023-05-21T12:58:39;94986.19;;;23.36;37.87
15405;BME280;7801;48.124;11.590;2023-05-21T13:01:09;94983.19;;;23.66;36.47
15405;BME280;7801;48.124;11.590;2023-05-21T13:03:37;94982.03;;;23.67;36.61
15405;BME280;7801;48.124;11.590;2023-05-21T13:06:05;94983.56;;;23.72;36.72
15405;BME280;7801;48.124;11.590;2023-05-21T13:08:31;94979.31;;;23.81;37.38
15405;BME280;7801;48.124;11.590;2023-05-21T13:10:59;94986.28;;;23.96;35.99
15405;BME280;7801;48.124;11.590;2023-05-21T13:13:24;94980.09;;;23.99;36.63
15405;BME280;7801;48.124;11.590;2023-05-21T13:15:51;94984.38;;;24.08;35.93
15405;BME280;7801;48.124;11.590;2023-05-21T13:18:17;94975.84;;;24.06;36.48
15405;BME280;7801;48.124;11.590;2023-05-21T13:20:44;94975.06;;;24.05;34.59